sensor_id;sensor_type;location;lat;lon;timestamp;temperature;humidity
20512;DHT22;10414;52.074;5.126;2023-04-24T00:01:24;10.10;99.90
20512;DHT22;10414;52.074;5.126;2023-04-24T00:03:52;10.10;99.90
20512;DHT22;10414;52.074;5.126;2023-04-24T00:06:19;10.10;99.90
20512;DHT22;10414;52.074;5.126;2023-04-24T00:08:46;10.10;99.90
20512;DHT22;10414;52.074;5.126;2023-04-24T00:11:12;10.10;99.90
20512;DHT22;10414;52.074;5.126;2023-04-24T00:13:39;10.10;99.90
20512;DHT22;10414;52.074;5.126;2023-04-24T00:16:06;10.10;99.90
20512;DHT22;10414;52.074;5.126;2023-04-24T00:18:33;10.10;99.90
20512;DHT22;10414;52.074;5.126;2023-04-24T00:21:01;10.10;99.90
20512;DHT22;10414;52.074;5.126;2023-04-24T00:23:28;10.20;99.90
20512;DHT22;10414;52.074;5.126;2023-04-24T00:25:55;10.20;99.90
20512;DHT22;10414;52.074;5.126;2023-04-24T00:28:22;10.30;99.90
20512;DHT22;10414;52.074;5.126;2023-04-24T00:30:49;10.30;99.90
20512;DHT22;10414;52.074;5.126;2023-04-24T00:33:15;10.20;99.90
20512;DHT22;10414;52.074;5.126;2023-04-24T00:35:42;10.20;99.90
20512;DHT22;10414;52.074;5.126;2023-04-24T00:38:11;10.20;99.90
20512;DHT22;10414;52.074;5.126;2023-04-24T00:40:37;10.20;99.90
20512;DHT22;10414;52.074;5.126;2023-04-24T00:43:05;10.20;99.90
20512;DHT22;10414;52.074;5.126;2023-04-24T00:45:32;10.30;99.90
20512;DHT22;10414;52.074;5.126;2023-04-24T00:48:00;10.30;99.90
20512;DHT22;10414;52.074;5.126;2023-04-24T00:50:27;10.30;99.90
20512;DHT22;10414;52.074;5.126;2023-04-24T00:52:54;10.30;99.90
20512;DHT22;10414;52.074;5.126;2023-04-24T00:55:22;10.30;99.90
20512;DHT22;10414;52.074;5.126;2023-04-24T00:57:49;10.30;99.90
20512;DHT22;10414;52.074;5.126;2023-04-24T01:00:16;10.30;99.90
20512;DHT22;10414;52.074;5.126;2023-04-24T01:02:44;10.30;99.90
20512;DHT22;10414;52.074;5.126;2023-04-24T01:05:13;10.30;99.90
20512;DHT22;10414;52.074;5.126;2023-04-24T01:07:41;10.20;99.90
20512;DHT22;10414;52.074;5.126;2023-04-24T01:10:11;10.40;99.90
20512;DHT22;10414;52.074;5.126;2023-04-24T01:12:41;10.40;99.90
20512;DHT22;10414;52.074;5.126;2023-04-24T01:15:09;10.30;99.90
20512;DHT22;10414;52.074;5.126;2023-04-24T01:17:36;10.40;99.90
20512;DHT22;10414;52.074;5.126;2023-04-24T01:20:04;10.30;99.90
20512;DHT22;10414;52.074;5.126;2023-04-24T01:22:33;10.20;99.90
20512;DHT22;10414;52.074;5.126;2023-04-24T01:25:01;10.20;99.90
20512;DHT22;10414;52.074;5.126;2023-04-24T01:27:28;10.30;99.90
20512;DHT22;10414;52.074;5.126;2023-04-24T01:29:55;10.40;99.90
20512;DHT22;10414;52.074;5.126;2023-04-24T01:32:22;10.30;99.90
20512;DHT22;10414;52.074;5.126;2023-04-24T01:34:49;10.30;99.90
20512;DHT22;10414;52.074;5.126;2023-04-24T01:37:16;10.30;99.90
20512;DHT22;10414;52.074;5.126;2023-04-24T01:39:44;10.20;99.90
20512;DHT22;10414;52.074;5.126;2023-04-24T01:42:12;10.20;99.90
20512;DHT22;10414;52.074;5.126;2023-04-24T01:44:40;10.30;99.90
20512;DHT22;10414;52.074;5.126;2023-04-24T01:47:07;10.30;99.90
20512;DHT22;10414;52.074;5.126;2023-04-24T01:49:34;10.30;99.90
20512;DHT22;10414;52.074;5.126;2023-04-24T01:52:01;10.30;99.90
20512;DHT22;10414;52.074;5.126;2023-04-24T01:54:28;10.30;99.90
20512;DHT22;10414;52.074;5.126;2023-04-24T01:56:56;10.40;99.90
20512;DHT22;10414;52.074;5.126;2023-04-24T01:59:23;10.30;99.90
20512;DHT22;10414;52.074;5.126;2023-04-24T02:01:51;10.30;99.90
20512;DHT22;10414;52.074;5.126;2023-04-24T02:04:18;10.30;99.90
20512;DHT22;10414;52.074;5.126;2023-04-24T02:06:45;10.40;99.90
20512;DHT22;10414;52.074;5.126;2023-04-24T02:09:12;10.30;99.90
20512;DHT22;10414;52.074;5.126;2023-04-24T02:11:39;10.30;99.90
20512;DHT22;10414;52.074;5.126;2023-04-24T02:14:07;10.40;99.90
20512;DHT22;10414;52.074;5.126;2023-04-24T02:16:33;10.30;99.90
20512;DHT22;10414;52.074;5.126;2023-04-24T02:19:01;10.30;99.90
20512;DHT22;10414;52.074;5.126;2023-04-24T02:21:28;10.30;99.90
20512;DHT22;10414;52.074;5.126;2023-04-24T02:23:56;10.40;99.90
20512;DHT22;10414;52.074;5.126;2023-04-24T02:26:23;10.40;99.90
20512;DHT22;10414;52.074;5.126;2023-04-24T02:28:50;10.40;99.90
20512;DHT22;10414;52.074;5.126;2023-04-24T02:31:18;10.40;99.90
20512;DHT22;10414;52.074;5.126;2023-04-24T02:33:45;10.50;99.90
20512;DHT22;10414;52.074;5.126;2023-04-24T02:36:12;10.50;99.90
20512;DHT22;10414;52.074;5.126;2023-04-24T02:38:39;10.40;99.90
20512;DHT22;10414;52.074;5.126;2023-04-24T02:41:06;10.40;99.90
20512;DHT22;10414;52.074;5.126;2023-04-24T02:43:33;10.40;99.90
20512;DHT22;10414;52.074;5.126;2023-04-24T02:46:00;10.40;99.90
20512;DHT22;10414;52.074;5.126;2023-04-24T02:48:28;10.40;99.90
20512;DHT22;10414;52.074;5.126;2023-04-24T02:50:55;10.40;99.90
20512;DHT22;10414;52.074;5.126;2023-04-24T02:53:23;10.40;99.90
20512;DHT22;10414;52.074;5.126;2023-04-24T02:55:49;10.40;99.90
20512;DHT22;10414;52.074;5.126;2023-04-24T02:58:16;10.60;99.90
20512;DHT22;10414;52.074;5.126;2023-04-24T03:00:45;10.30;99.90
20512;DHT22;10414;52.074;5.126;2023-04-24T03:03:12;10.40;99.90
20512;DHT22;10414;52.074;5.126;2023-04-24T03:05:41;10.50;99.90
20512;DHT22;10414;52.074;5.126;2023-04-24T03:08:07;10.40;99.90
20512;DHT22;10414;52.074;5.126;2023-04-24T03:10:34;10.30;99.90
20512;DHT22;10414;52.074;5.126;2023-04-24T03:13:01;10.40;99.90
20512;DHT22;10414;52.074;5.126;2023-04-24T03:15:28;10.30;99.90
20512;DHT22;10414;52.074;5.126;2023-04-24T03:17:54;10.50;99.90
20512;DHT22;10414;52.074;5.126;2023-04-24T03:20:21;10.50;99.90
20512;DHT22;10414;52.074;5.126;2023-04-24T03:22:49;10.40;99.90
20512;DHT22;10414;52.074;5.126;2023-04-24T03:25:16;10.40;99.90
20512;DHT22;10414;52.074;5.126;2023-04-24T03:27:43;10.40;99.90
20512;DHT22;10414;52.074;5.126;2023-04-24T03:30:10;10.50;99.90
20512;DHT22;10414;52.074;5.126;2023-04-24T03:32:37;10.70;99.90
20512;DHT22;10414;52.074;5.126;2023-04-24T03:35:05;10.60;99.90
20512;DHT22;10414;52.074;5.126;2023-04-24T03:37:32;10.70;99.90
20512;DHT22;10414;52.074;5.126;2023-04-24T03:40:00;10.80;99.90
20512;DHT22;10414;52.074;5.126;2023-04-24T03:42:27;10.90;99.90
20512;DHT22;10414;52.074;5.126;2023-04-24T03:44:54;10.70;99.90
20512;DHT22;10414;52.074;5.126;2023-04-24T03:47:21;10.60;99.90
20512;DHT22;10414;52.074;5.126;2023-04-24T03:49:48;10.50;99.90
20512;DHT22;10414;52.074;5.126;2023-04-24T03:52:14;10.40;99.90
20512;DHT22;10414;52.074;5.126;2023-04-24T03:54:41;10.50;99.90
20512;DHT22;10414;52.074;5.126;2023-04-24T03:57:09;10.40;99.90
20512;DHT22;10414;52.074;5.126;2023-04-24T03:59:36;10.20;99.90
20512;DHT22;10414;52.074;5.126;2023-04-24T04:02:03;10.30;99.90
20512;DHT22;10414;52.074;5.126;2023-04-24T04:04:30;10.60;99.90
20512;DHT22;10414;52.074;5.126;2023-04-24T04:06:56;10.50;99.90
20512;DHT22;10414;52.074;5.126;2023-04-24T04:09:26;10.50;99.90
20512;DHT22;10414;52.074;5.126;2023-04-24T04:11:53;10.60;99.90
20512;DHT22;10414;52.074;5.126;2023-04-24T04:14:22;10.80;99.90
20512;DHT22;10414;52.074;5.126;2023-04-24T04:16:48;10.80;99.90
20512;DHT22;10414;52.074;5.126;2023-04-24T04:19:15;10.50;99.90
20512;DHT22;10414;52.074;5.126;2023-04-24T04:21:42;10.30;99.90
20512;DHT22;10414;52.074;5.126;2023-04-24T04:24:11;10.50;99.90
20512;DHT22;10414;52.074;5.126;2023-04-24T04:26:38;10.70;99.90
20512;DHT22;10414;52.074;5.126;2023-04-24T04:29:06;10.70;99.90
20512;DHT22;10414;52.074;5.126;2023-04-24T04:31:34;10.80;99.90
20512;DHT22;10414;52.074;5.126;2023-04-24T04:34:02;11.00;99.90
20512;DHT22;10414;52.074;5.126;2023-04-24T04:36:29;11.20;99.90
20512;DHT22;10414;52.074;5.126;2023-04-24T04:38:56;11.30;99.90
20512;DHT22;10414;52.074;5.126;2023-04-24T04:41:24;11.10;99.90
20512;DHT22;10414;52.074;5.126;2023-04-24T04:43:51;10.90;99.90
20512;DHT22;10414;52.074;5.126;2023-04-24T04:46:18;10.80;99.90
20512;DHT22;10414;52.074;5.126;2023-04-24T04:48:46;10.70;99.90
20512;DHT22;10414;52.074;5.126;2023-04-24T04:51:13;10.70;99.90
20512;DHT22;10414;52.074;5.126;2023-04-24T04:53:40;10.60;99.90
20512;DHT22;10414;52.074;5.126;2023-04-24T04:56:07;10.50;99.90
20512;DHT22;10414;52.074;5.126;2023-04-24T04:58:34;10.50;99.90
20512;DHT22;10414;52.074;5.126;2023-04-24T05:01:00;10.40;99.90
20512;DHT22;10414;52.074;5.126;2023-04-24T05:03:28;10.40;99.90
20512;DHT22;10414;52.074;5.126;2023-04-24T05:05:57;10.40;99.90
20512;DHT22;10414;52.074;5.126;2023-04-24T05:08:24;10.30;99.90
20512;DHT22;10414;52.074;5.126;2023-04-24T05:10:51;10.20;99.90
20512;DHT22;10414;52.074;5.126;2023-04-24T05:13:18;10.40;99.90
20512;DHT22;10414;52.074;5.126;2023-04-24T05:15:45;10.00;99.90
20512;DHT22;10414;52.074;5.126;2023-04-24T05:18:12;9.90;99.90
20512;DHT22;10414;52.074;5.126;2023-04-24T05:20:39;10.00;99.90
20512;DHT22;10414;52.074;5.126;2023-04-24T05:23:07;9.90;99.90
20512;DHT22;10414;52.074;5.126;2023-04-24T05:25:34;10.00;99.90
20512;DHT22;10414;52.074;5.126;2023-04-24T05:28:01;10.30;99.90
20512;DHT22;10414;52.074;5.126;2023-04-24T05:30:28;10.40;99.90
20512;DHT22;10414;52.074;5.126;2023-04-24T05:32:54;10.10;99.90
20512;DHT22;10414;52.074;5.126;2023-04-24T05:35:22;10.00;99.90
20512;DHT22;10414;52.074;5.126;2023-04-24T05:37:48;10.10;99.90
20512;DHT22;10414;52.074;5.126;2023-04-24T05:40:17;10.20;99.90
20512;DHT22;10414;52.074;5.126;2023-04-24T05:42:43;10.20;99.90
20512;DHT22;10414;52.074;5.126;2023-04-24T05:45:10;10.50;99.90
20512;DHT22;10414;52.074;5.126;2023-04-24T05:47:42;10.70;99.90
20512;DHT22;10414;52.074;5.126;2023-04-24T05:50:09;10.30;99.90
20512;DHT22;10414;52.074;5.126;2023-04-24T05:52:36;10.60;99.90
20512;DHT22;10414;52.074;5.126;2023-04-24T05:55:03;10.60;99.90
20512;DHT22;10414;52.074;5.126;2023-04-24T05:57:32;10.80;99.90
20512;DHT22;10414;52.074;5.126;2023-04-24T05:59:59;10.40;99.90
20512;DHT22;10414;52.074;5.126;2023-04-24T06:02:25;10.30;99.90
20512;DHT22;10414;52.074;5.126;2023-04-24T06:04:52;10.30;99.90
20512;DHT22;10414;52.074;5.126;2023-04-24T06:07:20;10.20;99.90
20512;DHT22;10414;52.074;5.126;2023-04-24T06:09:47;10.20;99.90
20512;DHT22;10414;52.074;5.126;2023-04-24T06:12:14;10.10;99.90
20512;DHT22;10414;52.074;5.126;2023-04-24T06:14:42;9.90;99.90
20512;DHT22;10414;52.074;5.126;2023-04-24T06:17:09;9.60;99.90
20512;DHT22;10414;52.074;5.126;2023-04-24T06:19:36;9.50;99.90
20512;DHT22;10414;52.074;5.126;2023-04-24T06:22:03;9.50;99.90
20512;DHT22;10414;52.074;5.126;2023-04-24T06:24:30;9.30;99.90
20512;DHT22;10414;52.074;5.126;2023-04-24T06:26:56;9.30;99.90
20512;DHT22;10414;52.074;5.126;2023-04-24T06:29:25;9.30;99.90
20512;DHT22;10414;52.074;5.126;2023-04-24T06:31:53;9.30;99.90
20512;DHT22;10414;52.074;5.126;2023-04-24T06:34:20;9.30;99.90
20512;DHT22;10414;52.074;5.126;2023-04-24T06:36:47;9.30;99.90
20512;DHT22;10414;52.074;5.126;2023-04-24T06:39:14;9.40;99.90
20512;DHT22;10414;52.074;5.126;2023-04-24T06:41:41;9.40;99.90
20512;DHT22;10414;52.074;5.126;2023-04-24T06:44:08;9.20;99.90
20512;DHT22;10414;52.074;5.126;2023-04-24T06:46:35;9.30;99.90
20512;DHT22;10414;52.074;5.126;2023-04-24T06:49:03;9.30;99.90
20512;DHT22;10414;52.074;5.126;2023-04-24T06:51:30;9.30;99.90
20512;DHT22;10414;52.074;5.126;2023-04-24T06:53:58;9.20;99.90
20512;DHT22;10414;52.074;5.126;2023-04-24T06:56:25;9.30;99.90
20512;DHT22;10414;52.074;5.126;2023-04-24T06:58:54;9.30;99.90
20512;DHT22;10414;52.074;5.126;2023-04-24T07:01:21;9.30;99.90
20512;DHT22;10414;52.074;5.126;2023-04-24T07:03:48;9.40;99.90
20512;DHT22;10414;52.074;5.126;2023-04-24T07:06:16;9.30;99.90
20512;DHT22;10414;52.074;5.126;2023-04-24T07:08:46;9.20;99.90
20512;DHT22;10414;52.074;5.126;2023-04-24T07:11:13;9.30;99.90
20512;DHT22;10414;52.074;5.126;2023-04-24T07:13:40;9.10;99.90
20512;DHT22;10414;52.074;5.126;2023-04-24T07:16:08;9.30;99.90
20512;DHT22;10414;52.074;5.126;2023-04-24T07:18:35;9.50;99.90
20512;DHT22;10414;52.074;5.126;2023-04-24T07:21:02;9.40;99.90
20512;DHT22;10414;52.074;5.126;2023-04-24T07:23:30;9.40;99.90
20512;DHT22;10414;52.074;5.126;2023-04-24T07:25:57;9.50;99.90
20512;DHT22;10414;52.074;5.126;2023-04-24T07:28:24;9.50;99.90
20512;DHT22;10414;52.074;5.126;2023-04-24T07:30:51;9.50;99.90
20512;DHT22;10414;52.074;5.126;2023-04-24T07:33:19;9.60;99.90
20512;DHT22;10414;52.074;5.126;2023-04-24T07:35:46;9.40;99.90
20512;DHT22;10414;52.074;5.126;2023-04-24T07:38:13;9.50;99.90
20512;DHT22;10414;52.074;5.126;2023-04-24T07:40:41;9.70;99.90
20512;DHT22;10414;52.074;5.126;2023-04-24T07:43:08;9.80;99.90
20512;DHT22;10414;52.074;5.126;2023-04-24T07:45:35;9.70;99.90
20512;DHT22;10414;52.074;5.126;2023-04-24T07:48:03;9.80;99.90
20512;DHT22;10414;52.074;5.126;2023-04-24T07:50:30;9.80;99.90
20512;DHT22;10414;52.074;5.126;2023-04-24T07:52:56;9.90;99.90
20512;DHT22;10414;52.074;5.126;2023-04-24T07:55:23;9.80;99.90
20512;DHT22;10414;52.074;5.126;2023-04-24T07:57:52;9.80;99.90
20512;DHT22;10414;52.074;5.126;2023-04-24T08:00:19;9.90;99.90
20512;DHT22;10414;52.074;5.126;2023-04-24T08:02:46;9.70;99.90
20512;DHT22;10414;52.074;5.126;2023-04-24T08:05:13;9.70;99.90
20512;DHT22;10414;52.074;5.126;2023-04-24T08:07:40;9.80;99.90
20512;DHT22;10414;52.074;5.126;2023-04-24T08:10:09;9.70;99.90
20512;DHT22;10414;52.074;5.126;2023-04-24T08:12:37;9.90;99.90
20512;DHT22;10414;52.074;5.126;2023-04-24T08:15:06;9.90;99.90
20512;DHT22;10414;52.074;5.126;2023-04-24T08:17:33;9.80;99.90
20512;DHT22;10414;52.074;5.126;2023-04-24T08:20:00;9.80;99.90
20512;DHT22;10414;52.074;5.126;2023-04-24T08:22:28;9.80;99.90
20512;DHT22;10414;52.074;5.126;2023-04-24T08:24:55;9.80;99.90
20512;DHT22;10414;52.074;5.126;2023-04-24T08:27:22;9.90;99.90
20512;DHT22;10414;52.074;5.126;2023-04-24T08:29:49;9.90;99.90
20512;DHT22;10414;52.074;5.126;2023-04-24T08:32:18;10.00;99.90
20512;DHT22;10414;52.074;5.126;2023-04-24T08:34:44;10.10;99.90
20512;DHT22;10414;52.074;5.126;2023-04-24T08:37:13;10.30;99.90
20512;DHT22;10414;52.074;5.126;2023-04-24T08:39:40;10.20;99.90
20512;DHT22;10414;52.074;5.126;2023-04-24T08:42:07;10.30;99.90
20512;DHT22;10414;52.074;5.126;2023-04-24T08:44:35;10.40;99.90
20512;DHT22;10414;52.074;5.126;2023-04-24T08:47:02;10.60;99.90
20512;DHT22;10414;52.074;5.126;2023-04-24T08:49:31;10.70;99.90
20512;DHT22;10414;52.074;5.126;2023-04-24T08:51:58;10.60;99.90
20512;DHT22;10414;52.074;5.126;2023-04-24T08:54:26;10.50;99.90
20512;DHT22;10414;52.074;5.126;2023-04-24T08:56:54;10.40;99.90
20512;DHT22;10414;52.074;5.126;2023-04-24T08:59:23;10.60;99.90
20512;DHT22;10414;52.074;5.126;2023-04-24T09:01:51;11.00;99.90
20512;DHT22;10414;52.074;5.126;2023-04-24T09:04:20;10.90;99.90
20512;DHT22;10414;52.074;5.126;2023-04-24T09:06:51;10.90;99.90
20512;DHT22;10414;52.074;5.126;2023-04-24T09:09:18;10.70;99.90
20512;DHT22;10414;52.074;5.126;2023-04-24T09:11:46;10.40;99.90
20512;DHT22;10414;52.074;5.126;2023-04-24T09:14:13;10.50;99.90
20512;DHT22;10414;52.074;5.126;2023-04-24T09:16:41;10.70;99.90
20512;DHT22;10414;52.074;5.126;2023-04-24T09:19:08;11.10;99.90
20512;DHT22;10414;52.074;5.126;2023-04-24T09:21:35;11.00;99.90
20512;DHT22;10414;52.074;5.126;2023-04-24T09:24:04;11.50;99.90
20512;DHT22;10414;52.074;5.126;2023-04-24T09:26:34;12.40;99.90
20512;DHT22;10414;52.074;5.126;2023-04-24T09:29:03;12.60;99.90
20512;DHT22;10414;52.074;5.126;2023-04-24T09:31:30;12.40;99.90
20512;DHT22;10414;52.074;5.126;2023-04-24T09:33:59;12.00;99.90
20512;DHT22;10414;52.074;5.126;2023-04-24T09:36:30;12.00;99.90
20512;DHT22;10414;52.074;5.126;2023-04-24T09:38:59;11.80;99.90
20512;DHT22;10414;52.074;5.126;2023-04-24T09:41:28;12.20;99.90
20512;DHT22;10414;52.074;5.126;2023-04-24T09:43:56;12.10;99.90
20512;DHT22;10414;52.074;5.126;2023-04-24T09:46:29;12.10;99.90
20512;DHT22;10414;52.074;5.126;2023-04-24T09:48:57;12.30;99.90
20512;DHT22;10414;52.074;5.126;2023-04-24T09:51:34;11.90;99.90
20512;DHT22;10414;52.074;5.126;2023-04-24T09:54:02;11.60;99.90
20512;DHT22;10414;52.074;5.126;2023-04-24T09:56:32;11.50;99.90
20512;DHT22;10414;52.074;5.126;2023-04-24T09:59:04;11.30;99.90
20512;DHT22;10414;52.074;5.126;2023-04-24T10:01:32;11.30;99.90
20512;DHT22;10414;52.074;5.126;2023-04-24T10:03:59;10.90;99.90
20512;DHT22;10414;52.074;5.126;2023-04-24T10:06:32;10.90;99.90
20512;DHT22;10414;52.074;5.126;2023-04-24T10:08:59;10.90;99.90
20512;DHT22;10414;52.074;5.126;2023-04-24T10:11:27;11.20;99.90
20512;DHT22;10414;52.074;5.126;2023-04-24T10:13:56;10.70;99.90
20512;DHT22;10414;52.074;5.126;2023-04-24T10:16:23;10.60;99.90
20512;DHT22;10414;52.074;5.126;2023-04-24T10:18:52;11.00;99.90
20512;DHT22;10414;52.074;5.126;2023-04-24T10:21:19;10.80;99.90
20512;DHT22;10414;52.074;5.126;2023-04-24T10:23:48;11.40;99.90
20512;DHT22;10414;52.074;5.126;2023-04-24T10:26:16;11.70;99.90
20512;DHT22;10414;52.074;5.126;2023-04-24T10:28:45;11.80;99.90
20512;DHT22;10414;52.074;5.126;2023-04-24T10:31:14;11.60;99.90
20512;DHT22;10414;52.074;5.126;2023-04-24T10:33:42;11.80;99.90
20512;DHT22;10414;52.074;5.126;2023-04-24T10:36:11;11.30;99.90
20512;DHT22;10414;52.074;5.126;2023-04-24T10:38:40;11.30;99.90
20512;DHT22;10414;52.074;5.126;2023-04-24T10:41:09;11.40;99.90
20512;DHT22;10414;52.074;5.126;2023-04-24T10:43:41;11.90;99.90
20512;DHT22;10414;52.074;5.126;2023-04-24T10:46:09;12.40;99.90
20512;DHT22;10414;52.074;5.126;2023-04-24T10:48:42;13.30;99.90
20512;DHT22;10414;52.074;5.126;2023-04-24T10:51:11;14.40;99.90
20512;DHT22;10414;52.074;5.126;2023-04-24T10:53:38;15.70;99.90
20512;DHT22;10414;52.074;5.126;2023-04-24T10:56:06;17.20;99.90
20512;DHT22;10414;52.074;5.126;2023-04-24T10:58:40;17.50;99.90
20512;DHT22;10414;52.074;5.126;2023-04-24T11:01:23;16.90;99.90
20512;DHT22;10414;52.074;5.126;2023-04-24T11:03:55;15.60;99.90
20512;DHT22;10414;52.074;5.126;2023-04-24T11:06:28;14.60;99.90
20512;DHT22;10414;52.074;5.126;2023-04-24T11:09:02;13.90;99.90
20512;DHT22;10414;52.074;5.126;2023-04-24T11:11:29;13.10;99.90
20512;DHT22;10414;52.074;5.126;2023-04-24T11:14:07;12.60;99.90
20512;DHT22;10414;52.074;5.126;2023-04-24T11:16:44;12.30;99.90
20512;DHT22;10414;52.074;5.126;2023-04-24T11:19:22;12.10;99.90
20512;DHT22;10414;52.074;5.126;2023-04-24T11:21:55;11.90;99.90
20512;DHT22;10414;52.074;5.126;2023-04-24T11:24:48;11.70;99.90
20512;DHT22;10414;52.074;5.126;2023-04-24T11:27:18;11.10;99.90
20512;DHT22;10414;52.074;5.126;2023-04-24T11:29:47;10.30;99.90
20512;DHT22;10414;52.074;5.126;2023-04-24T11:32:25;10.20;99.90
20512;DHT22;10414;52.074;5.126;2023-04-24T11:34:54;10.60;99.90
20512;DHT22;10414;52.074;5.126;2023-04-24T11:37:22;11.60;99.90
20512;DHT22;10414;52.074;5.126;2023-04-24T11:39:51;12.30;99.90
20512;DHT22;10414;52.074;5.126;2023-04-24T11:42:20;12.90;99.90
20512;DHT22;10414;52.074;5.126;2023-04-24T11:44:48;13.00;99.90
20512;DHT22;10414;52.074;5.126;2023-04-24T11:47:15;12.90;99.90
20512;DHT22;10414;52.074;5.126;2023-04-24T11:49:42;12.90;99.90
20512;DHT22;10414;52.074;5.126;2023-04-24T11:52:10;12.80;99.90
20512;DHT22;10414;52.074;5.126;2023-04-24T11:54:37;13.20;99.90
20512;DHT22;10414;52.074;5.126;2023-04-24T11:57:05;13.30;99.90
20512;DHT22;10414;52.074;5.126;2023-04-24T11:59:35;13.20;99.90
20512;DHT22;10414;52.074;5.126;2023-04-24T12:02:03;13.40;99.90
20512;DHT22;10414;52.074;5.126;2023-04-24T12:04:39;13.00;99.90
20512;DHT22;10414;52.074;5.126;2023-04-24T12:07:06;13.30;99.90
20512;DHT22;10414;52.074;5.126;2023-04-24T12:09:46;13.60;99.90
20512;DHT22;10414;52.074;5.126;2023-04-24T12:12:14;13.70;99.90
20512;DHT22;10414;52.074;5.126;2023-04-24T12:14:47;14.00;99.90
20512;DHT22;10414;52.074;5.126;2023-04-24T12:17:14;13.60;99.90
20512;DHT22;10414;52.074;5.126;2023-04-24T12:19:46;13.60;99.90
20512;DHT22;10414;52.074;5.126;2023-04-24T12:22:13;13.00;99.90
20512;DHT22;10414;52.074;5.126;2023-04-24T12:24:57;12.90;99.90
20512;DHT22;10414;52.074;5.126;2023-04-24T12:27:24;13.20;99.90
20512;DHT22;10414;52.074;5.126;2023-04-24T12:29:55;13.20;99.90
20512;DHT22;10414;52.074;5.126;2023-04-24T12:32:22;13.10;99.90
20512;DHT22;10414;52.074;5.126;2023-04-24T12:34:50;12.70;99.90
20512;DHT22;10414;52.074;5.126;2023-04-24T12:37:18;12.30;99.90
20512;DHT22;10414;52.074;5.126;2023-04-24T12:40:03;12.60;99.90
20512;DHT22;10414;52.074;5.126;2023-04-24T12:42:32;12.80;99.90
20512;DHT22;10414;52.074;5.126;2023-04-24T12:45:00;13.00;99.90
20512;DHT22;10414;52.074;5.126;2023-04-24T12:47:29;13.00;99.90
20512;DHT22;10414;52.074;5.126;2023-04-24T12:49:56;13.10;99.90
20512;DHT22;10414;52.074;5.126;2023-04-24T12:52:23;13.10;99.90
20512;DHT22;10414;52.074;5.126;2023-04-24T12:54:52;12.90;99.90
20512;DHT22;10414;52.074;5.126;2023-04-24T12:57:21;12.50;99.90
20512;DHT22;10414;52.074;5.126;2023-04-24T12:59:48;12.20;99.90
20512;DHT22;10414;52.074;5.126;2023-04-24T13:02:16;11.90;99.90
20512;DHT22;10414;52.074;5.126;2023-04-24T13:04:44;11.40;99.90
20512;DHT22;10414;52.074;5.126;2023-04-24T13:07:12;11.60;99.90
20512;DHT22;10414;52.074;5.126;2023-04-24T13:09:39;12.20;99.90
20512;DHT22;10414;52.074;5.126;2023-04-24T13:12:06;12.70;99.90
20512;DHT22;10414;52.074;5.126;2023-04-24T13:14:35;13.50;99.90
20512;DHT22;10414;52.074;5.126;2023-04-24T13:17:02;13.20;99.90
20512;DHT22;10414;52.074;5.126;2023-04-24T13:19:29;12.60;99.90
20512;DHT22;10414;52.074;5.126;2023-04-24T13:21:57;12.50;99.90
20512;DHT22;10414;52.074;5.126;2023-04-24T13:24:24;12.90;99.90
20512;DHT22;10414;52.074;5.126;2023-04-24T13:26:52;12.90;99.90
20512;DHT22;10414;52.074;5.126;2023-04-24T13:29:19;12.60;99.90
20512;DHT22;10414;52.074;5.126;2023-04-24T13:31:49;12.30;99.90
20512;DHT22;10414;52.074;5.126;2023-04-24T13:34:16;12.70;99.90
20512;DHT22;10414;52.074;5.126;2023-04-24T13:36:44;12.80;99.90
20512;DHT22;10414;52.074;5.126;2023-04-24T13:39:10;13.20;99.90
20512;DHT22;10414;52.074;5.126;2023-04-24T13:41:37;13.20;99.90
20512;DHT22;10414;52.074;5.126;2023-04-24T13:44:06;13.20;99.90
20512;DHT22;10414;52.074;5.126;2023-04-24T13:46:33;13.10;99.90
20512;DHT22;10414;52.074;5.126;2023-04-24T13:49:02;13.10;99.90
20512;DHT22;10414;52.074;5.126;2023-04-24T13:51:29;13.50;99.90
20512;DHT22;10414;52.074;5.126;2023-04-24T13:53:56;13.40;99.90
20512;DHT22;10414;52.074;5.126;2023-04-24T13:56:23;13.70;99.90
20512;DHT22;10414;52.074;5.126;2023-04-24T13:58:50;14.20;99.90
20512;DHT22;10414;52.074;5.126;2023-04-24T14:01:17;14.10;99.90
20512;DHT22;10414;52.074;5.126;2023-04-24T14:03:44;14.10;99.90
20512;DHT22;10414;52.074;5.126;2023-04-24T14:06:12;13.40;99.90
20512;DHT22;10414;52.074;5.126;2023-04-24T14:08:39;13.30;99.90
20512;DHT22;10414;52.074;5.126;2023-04-24T14:11:06;13.00;99.90
20512;DHT22;10414;52.074;5.126;2023-04-24T14:13:33;12.80;99.90
20512;DHT22;10414;52.074;5.126;2023-04-24T14:15:59;12.60;99.90
20512;DHT22;10414;52.074;5.126;2023-04-24T14:18:26;12.30;99.90
20512;DHT22;10414;52.074;5.126;2023-04-24T14:20:54;11.90;99.90
20512;DHT22;10414;52.074;5.126;2023-04-24T14:23:22;11.80;99.90
20512;DHT22;10414;52.074;5.126;2023-04-24T14:25:49;11.80;99.90
20512;DHT22;10414;52.074;5.126;2023-04-24T14:28:18;11.80;99.90
20512;DHT22;10414;52.074;5.126;2023-04-24T14:30:45;12.00;99.90
20512;DHT22;10414;52.074;5.126;2023-04-24T14:33:12;12.20;99.90
20512;DHT22;10414;52.074;5.126;2023-04-24T14:35:40;12.20;99.90
20512;DHT22;10414;52.074;5.126;2023-04-24T14:38:08;11.80;99.90
20512;DHT22;10414;52.074;5.126;2023-04-24T14:40:36;11.40;99.90
20512;DHT22;10414;52.074;5.126;2023-04-24T14:43:04;11.30;99.90
20512;DHT22;10414;52.074;5.126;2023-04-24T14:45:31;11.40;99.90
20512;DHT22;10414;52.074;5.126;2023-04-24T14:47:58;11.50;99.90
20512;DHT22;10414;52.074;5.126;2023-04-24T14:50:25;11.80;99.90
20512;DHT22;10414;52.074;5.126;2023-04-24T14:52:53;12.20;99.90
20512;DHT22;10414;52.074;5.126;2023-04-24T14:55:20;12.10;99.90
20512;DHT22;10414;52.074;5.126;2023-04-24T14:57:48;12.00;99.90
20512;DHT22;10414;52.074;5.126;2023-04-24T15:00:16;11.90;99.90
20512;DHT22;10414;52.074;5.126;2023-04-24T15:02:43;12.10;99.90
20512;DHT22;10414;52.074;5.126;2023-04-24T15:05:10;12.20;99.90
20512;DHT22;10414;52.074;5.126;2023-04-24T15:07:37;12.50;99.90
20512;DHT22;10414;52.074;5.126;2023-04-24T15:10:05;12.80;99.90
20512;DHT22;10414;52.074;5.126;2023-04-24T15:12:32;12.50;99.90
20512;DHT22;10414;52.074;5.126;2023-04-24T15:15:00;12.50;99.90
20512;DHT22;10414;52.074;5.126;2023-04-24T15:17:27;12.40;99.90
20512;DHT22;10414;52.074;5.126;2023-04-24T15:19:54;12.00;99.90
20512;DHT22;10414;52.074;5.126;2023-04-24T15:22:21;12.00;99.90
20512;DHT22;10414;52.074;5.126;2023-04-24T15:24:48;12.20;99.90
20512;DHT22;10414;52.074;5.126;2023-04-24T15:27:15;12.30;99.90
20512;DHT22;10414;52.074;5.126;2023-04-24T15:29:42;11.90;99.90
20512;DHT22;10414;52.074;5.126;2023-04-24T15:32:10;11.70;99.90
20512;DHT22;10414;52.074;5.126;2023-04-24T15:34:37;11.50;99.90
20512;DHT22;10414;52.074;5.126;2023-04-24T15:37:04;11.70;99.90